sensor_id;sensor_type;location;lat;lon;timestamp;pressure;altitude;pressure_sealevel;temperature
35960;BMP280;22043;50.970;7.192;2023-04-15T00:01:07;98356.78;;;8.29
35960;BMP280;22043;50.970;7.192;2023-04-15T00:03:32;98371.91;;;8.30
35960;BMP280;22043;50.970;7.192;2023-04-15T00:05:58;98362.91;;;8.33
35960;BMP280;22043;50.970;7.192;2023-04-15T00:08:24;98357.09;;;8.35
35960;BMP280;22043;50.970;7.192;2023-04-15T00:10:49;98355.19;;;8.32
35960;BMP280;22043;50.970;7.192;2023-04-15T00:13:15;98363.72;;;8.34
35960;BMP280;22043;50.970;7.192;2023-04-15T00:15:40;98354.47;;;8.28
35960;BMP280;22043;50.970;7.192;2023-04-15T00:18:06;98362.25;;;8.26
35960;BMP280;22043;50.970;7.192;2023-04-15T00:20:32;98357.59;;;8.26
35960;BMP280;22043;50.970;7.192;2023-04-15T00:22:58;98352.25;;;8.23
35960;BMP280;22043;50.970;7.192;2023-04-15T00:25:24;98364.28;;;8.22
35960;BMP280;22043;50.970;7.192;2023-04-15T00:27:50;98359.19;;;8.24
35960;BMP280;22043;50.970;7.192;2023-04-15T00:30:15;98356.41;;;8.27
35960;BMP280;22043;50.970;7.192;2023-04-15T00:32:41;98347.22;;;8.21
35960;BMP280;22043;50.970;7.192;2023-04-15T00:35:07;98344.09;;;8.23
35960;BMP280;22043;50.970;7.192;2023-04-15T00:37:33;98349.00;;;8.31
35960;BMP280;22043;50.970;7.192;2023-04-15T00:39:59;98343.22;;;8.29
35960;BMP280;22043;50.970;7.192;2023-04-15T00:42:26;98346.28;;;8.31
35960;BMP280;22043;50.970;7.192;2023-04-15T00:44:52;98349.72;;;8.35
35960;BMP280;22043;50.970;7.192;2023-04-15T00:47:17;98354.69;;;8.37
35960;BMP280;22043;50.970;7.192;2023-04-15T00:49:44;98355.47;;;8.37
35960;BMP280;22043;50.970;7.192;2023-04-15T00:52:09;98347.31;;;8.37
35960;BMP280;22043;50.970;7.192;2023-04-15T00:54:35;98353.53;;;8.38
35960;BMP280;22043;50.970;7.192;2023-04-15T00:57:04;98346.94;;;8.39
35960;BMP280;22043;50.970;7.192;2023-04-15T00:59:30;98354.31;;;8.38
35960;BMP280;22043;50.970;7.192;2023-04-15T01:01:55;98357.03;;;8.38
35960;BMP280;22043;50.970;7.192;2023-04-15T01:04:21;98352.75;;;8.37
35960;BMP280;22043;50.970;7.192;2023-04-15T01:06:47;98354.69;;;8.37
35960;BMP280;22043;50.970;7.192;2023-04-15T01:09:12;98351.22;;;8.36
35960;BMP280;22043;50.970;7.192;2023-04-15T01:11:37;98349.75;;;8.32
35960;BMP280;22043;50.970;7.192;2023-04-15T01:14:08;98352.50;;;8.28
35960;BMP280;22043;50.970;7.192;2023-04-15T01:16:36;98341.38;;;8.23
35960;BMP280;22043;50.970;7.192;2023-04-15T01:19:07;98348.75;;;8.22
35960;BMP280;22043;50.970;7.192;2023-04-15T01:21:36;98346.84;;;8.19
35960;BMP280;22043;50.970;7.192;2023-04-15T01:24:07;98341.84;;;8.18
35960;BMP280;22043;50.970;7.192;2023-04-15T01:26:38;98345.38;;;8.14
35960;BMP280;22043;50.970;7.192;2023-04-15T01:29:06;98341.53;;;8.12
35960;BMP280;22043;50.970;7.192;2023-04-15T01:31:32;98338.09;;;8.08
35960;BMP280;22043;50.970;7.192;2023-04-15T01:33:58;98342.41;;;8.05
35960;BMP280;22043;50.970;7.192;2023-04-15T01:36:23;98342.81;;;8.04
35960;BMP280;22043;50.970;7.192;2023-04-15T01:38:51;98348.72;;;7.99
35960;BMP280;22043;50.970;7.192;2023-04-15T01:41:23;98351.44;;;7.99
35960;BMP280;22043;50.970;7.192;2023-04-15T01:43:50;98353.78;;;7.97
35960;BMP280;22043;50.970;7.192;2023-04-15T01:46:16;98341.03;;;7.94
35960;BMP280;22043;50.970;7.192;2023-04-15T01:48:42;98343.75;;;7.94
35960;BMP280;22043;50.970;7.192;2023-04-15T01:51:07;98341.47;;;7.92
35960;BMP280;22043;50.970;7.192;2023-04-15T01:53:33;98346.94;;;7.89
35960;BMP280;22043;50.970;7.192;2023-04-15T01:55:58;98334.91;;;7.90
35960;BMP280;22043;50.970;7.192;2023-04-15T01:58:24;98342.28;;;7.89
35960;BMP280;22043;50.970;7.192;2023-04-15T02:00:49;98338.84;;;7.85
35960;BMP280;22043;50.970;7.192;2023-04-15T02:03:15;98332.66;;;7.84
35960;BMP280;22043;50.970;7.192;2023-04-15T02:05:41;98329.56;;;7.82
35960;BMP280;22043;50.970;7.192;2023-04-15T02:08:07;98338.16;;;7.81
35960;BMP280;22043;50.970;7.192;2023-04-15T02:10:36;98334.66;;;7.80
35960;BMP280;22043;50.970;7.192;2023-04-15T02:13:03;98330.81;;;7.78
35960;BMP280;22043;50.970;7.192;2023-04-15T02:15:29;98339.66;;;7.82
35960;BMP280;22043;50.970;7.192;2023-04-15T02:17:54;98335.84;;;7.79
35960;BMP280;22043;50.970;7.192;2023-04-15T02:20:20;98338.94;;;7.78
35960;BMP280;22043;50.970;7.192;2023-04-15T02:22:46;98345.25;;;7.71
35960;BMP280;22043;50.970;7.192;2023-04-15T02:25:14;98347.19;;;7.71
35960;BMP280;22043;50.970;7.192;2023-04-15T02:27:41;98349.13;;;7.70
35960;BMP280;22043;50.970;7.192;2023-04-15T02:30:06;98342.19;;;7.69
35960;BMP280;22043;50.970;7.192;2023-04-15T02:32:33;98343.72;;;7.70
35960;BMP280;22043;50.970;7.192;2023-04-15T02:35:06;98350.66;;;7.71
35960;BMP280;22043;50.970;7.192;2023-04-15T02:37:35;98347.97;;;7.71
35960;BMP280;22043;50.970;7.192;2023-04-15T02:40:09;98353.38;;;7.71
35960;BMP280;22043;50.970;7.192;2023-04-15T02:42:37;98351.03;;;7.73
35960;BMP280;22043;50.970;7.192;2023-04-15T02:45:03;98356.44;;;7.73
35960;BMP280;22043;50.970;7.192;2023-04-15T02:47:32;98359.63;;;7.68
35960;BMP280;22043;50.970;7.192;2023-04-15T02:49:57;98362.69;;;7.70
35960;BMP280;22043;50.970;7.192;2023-04-15T02:52:24;98360.06;;;7.67
35960;BMP280;22043;50.970;7.192;2023-04-15T02:54:50;98356.56;;;7.66
35960;BMP280;22043;50.970;7.192;2023-04-15T02:57:16;98354.63;;;7.67
35960;BMP280;22043;50.970;7.192;2023-04-15T02:59:41;98363.16;;;7.65
35960;BMP280;22043;50.970;7.192;2023-04-15T03:02:07;98365.41;;;7.70
35960;BMP280;22043;50.970;7.192;2023-04-15T03:04:32;98361.94;;;7.70
35960;BMP280;22043;50.970;7.192;2023-04-15T03:06:58;98365.09;;;7.65
35960;BMP280;22043;50.970;7.192;2023-04-15T03:09:25;98362.41;;;7.61
35960;BMP280;22043;50.970;7.192;2023-04-15T03:11:51;98363.28;;;7.58
35960;BMP280;22043;50.970;7.192;2023-04-15T03:14:19;98376.44;;;7.56
35960;BMP280;22043;50.970;7.192;2023-04-15T03:16:46;98369.88;;;7.53
35960;BMP280;22043;50.970;7.192;2023-04-15T03:19:12;98368.00;;;7.50
35960;BMP280;22043;50.970;7.192;2023-04-15T03:21:40;98371.09;;;7.49
35960;BMP280;22043;50.970;7.192;2023-04-15T03:24:07;98373.00;;;7.52
35960;BMP280;22043;50.970;7.192;2023-04-15T03:26:32;98369.56;;;7.48
35960;BMP280;22043;50.970;7.192;2023-04-15T03:29:00;98374.19;;;7.51
35960;BMP280;22043;50.970;7.192;2023-04-15T03:31:26;98367.66;;;7.45
35960;BMP280;22043;50.970;7.192;2023-04-15T03:33:52;98378.91;;;7.47
35960;BMP280;22043;50.970;7.192;2023-04-15T03:36:17;98374.97;;;7.48
35960;BMP280;22043;50.970;7.192;2023-04-15T03:38:43;98378.50;;;7.45
35960;BMP280;22043;50.970;7.192;2023-04-15T03:41:08;98382.78;;;7.46
35960;BMP280;22043;50.970;7.192;2023-04-15T03:43:34;98384.34;;;7.43
35960;BMP280;22043;50.970;7.192;2023-04-15T03:45:59;98387.78;;;7.47
35960;BMP280;22043;50.970;7.192;2023-04-15T03:48:25;98385.53;;;7.42
35960;BMP280;22043;50.970;7.192;2023-04-15T03:50:50;98385.56;;;7.39
35960;BMP280;22043;50.970;7.192;2023-04-15T03:53:16;98391.03;;;7.35
35960;BMP280;22043;50.970;7.192;2023-04-15T03:55:41;98391.03;;;7.35
35960;BMP280;22043;50.970;7.192;2023-04-15T03:58:07;98381.41;;;7.30
35960;BMP280;22043;50.970;7.192;2023-04-15T04:00:32;98387.88;;;7.37
35960;BMP280;22043;50.970;7.192;2023-04-15T04:02:57;98384.50;;;7.33
35960;BMP280;22043;50.970;7.192;2023-04-15T04:05:23;98376.78;;;7.27
35960;BMP280;22043;50.970;7.192;2023-04-15T04:07:48;98385.72;;;7.24
35960;BMP280;22043;50.970;7.192;2023-04-15T04:10:14;98385.97;;;7.37
35960;BMP280;22043;50.970;7.192;2023-04-15T04:12:39;98381.41;;;7.30
35960;BMP280;22043;50.970;7.192;2023-04-15T04:15:05;98384.91;;;7.27
35960;BMP280;22043;50.970;7.192;2023-04-15T04:17:31;98388.44;;;7.24
35960;BMP280;22043;50.970;7.192;2023-04-15T04:19:56;98391.50;;;7.26
35960;BMP280;22043;50.970;7.192;2023-04-15T04:22:22;98388.09;;;7.19
35960;BMP280;22043;50.970;7.192;2023-04-15T04:24:48;98390.47;;;7.17
35960;BMP280;22043;50.970;7.192;2023-04-15T04:27:14;98394.72;;;7.14
35960;BMP280;22043;50.970;7.192;2023-04-15T04:29:39;98393.16;;;7.17
35960;BMP280;22043;50.970;7.192;2023-04-15T04:32:26;98398.19;;;7.18
35960;BMP280;22043;50.970;7.192;2023-04-15T04:34:52;98397.06;;;7.16
35960;BMP280;22043;50.970;7.192;2023-04-15T04:37:17;98403.50;;;7.29
35960;BMP280;22043;50.970;7.192;2023-04-15T04:39:42;98407.00;;;7.26
35960;BMP280;22043;50.970;7.192;2023-04-15T04:42:08;98405.06;;;7.26
35960;BMP280;22043;50.970;7.192;2023-04-15T04:44:33;98404.34;;;7.22
35960;BMP280;22043;50.970;7.192;2023-04-15T04:46:59;98397.00;;;7.19
35960;BMP280;22043;50.970;7.192;2023-04-15T04:49:24;98407.06;;;7.19
35960;BMP280;22043;50.970;7.192;2023-04-15T04:51:50;98407.47;;;7.17
35960;BMP280;22043;50.970;7.192;2023-04-15T04:54:15;98412.94;;;7.14
35960;BMP280;22043;50.970;7.192;2023-04-15T04:56:41;98414.88;;;7.13
35960;BMP280;22043;50.970;7.192;2023-04-15T04:59:06;98416.03;;;7.16
35960;BMP280;22043;50.970;7.192;2023-04-15T05:01:32;98422.97;;;7.17
35960;BMP280;22043;50.970;7.192;2023-04-15T05:03:58;98419.88;;;7.15
35960;BMP280;22043;50.970;7.192;2023-04-15T05:06:24;98414.88;;;7.13
35960;BMP280;22043;50.970;7.192;2023-04-15T05:08:50;98419.88;;;7.15
35960;BMP280;22043;50.970;7.192;2023-04-15T05:11:15;98420.53;;;7.26
35960;BMP280;22043;50.970;7.192;2023-04-15T05:13:40;98419.38;;;7.27
35960;BMP280;22043;50.970;7.192;2023-04-15T05:16:06;98424.47;;;7.21
35960;BMP280;22043;50.970;7.192;2023-04-15T05:18:32;98443.84;;;7.20
35960;BMP280;22043;50.970;7.192;2023-04-15T05:20:58;98441.91;;;7.20
35960;BMP280;22043;50.970;7.192;2023-04-15T05:23:24;98444.94;;;7.26
35960;BMP280;22043;50.970;7.192;2023-04-15T05:25:49;98439.97;;;7.21
35960;BMP280;22043;50.970;7.192;2023-04-15T05:28:14;98439.13;;;7.24
35960;BMP280;22043;50.970;7.192;2023-04-15T05:30:40;98445.34;;;7.24
35960;BMP280;22043;50.970;7.192;2023-04-15T05:33:06;98442.59;;;7.28
35960;BMP280;22043;50.970;7.192;2023-04-15T05:35:31;98443.72;;;7.30
35960;BMP280;22043;50.970;7.192;2023-04-15T05:37:57;98446.84;;;7.33
35960;BMP280;22043;50.970;7.192;2023-04-15T05:40:22;98455.31;;;7.35
35960;BMP280;22043;50.970;7.192;2023-04-15T05:42:48;98462.56;;;7.45
35960;BMP280;22043;50.970;7.192;2023-04-15T05:45:13;98455.84;;;7.56
35960;BMP280;22043;50.970;7.192;2023-04-15T05:47:39;98466.59;;;7.64
35960;BMP280;22043;50.970;7.192;2023-04-15T05:50:05;98454.06;;;7.73
35960;BMP280;22043;50.970;7.192;2023-04-15T05:52:31;98461.69;;;7.85
35960;BMP280;22043;50.970;7.192;2023-04-15T05:54:56;98465.91;;;7.90
35960;BMP280;22043;50.970;7.192;2023-04-15T05:57:22;98466.56;;;7.98
35960;BMP280;22043;50.970;7.192;2023-04-15T05:59:47;98466.81;;;8.07
35960;BMP280;22043;50.970;7.192;2023-04-15T06:02:13;98474.00;;;8.21
35960;BMP280;22043;50.970;7.192;2023-04-15T06:04:39;98475.84;;;8.27
35960;BMP280;22043;50.970;7.192;2023-04-15T06:07:04;98465.69;;;8.35
35960;BMP280;22043;50.970;7.192;2023-04-15T06:09:30;98472.56;;;8.39
35960;BMP280;22043;50.970;7.192;2023-04-15T06:11:55;98477.91;;;8.47
35960;BMP280;22043;50.970;7.192;2023-04-15T06:14:22;98482.06;;;8.55
35960;BMP280;22043;50.970;7.192;2023-04-15T06:16:47;98483.00;;;8.68
35960;BMP280;22043;50.970;7.192;2023-04-15T06:19:13;98487.25;;;8.69
35960;BMP280;22043;50.970;7.192;2023-04-15T06:21:38;98486.31;;;8.79
35960;BMP280;22043;50.970;7.192;2023-04-15T06:24:04;98483.91;;;8.85
35960;BMP280;22043;50.970;7.192;2023-04-15T06:26:29;98486.16;;;8.90
35960;BMP280;22043;50.970;7.192;2023-04-15T06:28:55;98502.25;;;9.01
35960;BMP280;22043;50.970;7.192;2023-04-15T06:31:21;98493.16;;;9.11
35960;BMP280;22043;50.970;7.192;2023-04-15T06:33:47;98492.19;;;9.21
35960;BMP280;22043;50.970;7.192;2023-04-15T06:36:12;98494.53;;;9.22
35960;BMP280;22043;50.970;7.192;2023-04-15T06:38:38;98505.53;;;9.35
35960;BMP280;22043;50.970;7.192;2023-04-15T06:41:03;98505.88;;;9.37
35960;BMP280;22043;50.970;7.192;2023-04-15T06:43:29;98507.66;;;9.47
35960;BMP280;22043;50.970;7.192;2023-04-15T06:45:55;98513.44;;;9.49
35960;BMP280;22043;50.970;7.192;2023-04-15T06:48:21;98518.38;;;9.55
35960;BMP280;22043;50.970;7.192;2023-04-15T06:50:48;98517.97;;;9.56
35960;BMP280;22043;50.970;7.192;2023-04-15T06:53:13;98530.75;;;9.59
35960;BMP280;22043;50.970;7.192;2023-04-15T06:55:39;98525.47;;;9.52
35960;BMP280;22043;50.970;7.192;2023-04-15T06:58:05;98525.72;;;9.58
35960;BMP280;22043;50.970;7.192;2023-04-15T07:00:31;98538.91;;;9.59
35960;BMP280;22043;50.970;7.192;2023-04-15T07:02:58;98543.31;;;9.73
35960;BMP280;22043;50.970;7.192;2023-04-15T07:05:27;98532.06;;;9.71
35960;BMP280;22043;50.970;7.192;2023-04-15T07:07:53;98542.25;;;9.67
35960;BMP280;22043;50.970;7.192;2023-04-15T07:10:18;98542.63;;;9.69
35960;BMP280;22043;50.970;7.192;2023-04-15T07:12:49;98549.69;;;9.63
35960;BMP280;22043;50.970;7.192;2023-04-15T07:15:15;98549.59;;;9.70
35960;BMP280;22043;50.970;7.192;2023-04-15T07:17:41;98536.59;;;9.58
35960;BMP280;22043;50.970;7.192;2023-04-15T07:20:11;98545.41;;;9.65
35960;BMP280;22043;50.970;7.192;2023-04-15T07:22:37;98543.06;;;9.64
35960;BMP280;22043;50.970;7.192;2023-04-15T07:25:03;98555.91;;;9.63
35960;BMP280;22043;50.970;7.192;2023-04-15T07:27:28;98555.72;;;9.74
35960;BMP280;22043;50.970;7.192;2023-04-15T07:29:53;98556.34;;;9.82
35960;BMP280;22043;50.970;7.192;2023-04-15T07:32:19;98553.34;;;9.76
35960;BMP280;22043;50.970;7.192;2023-04-15T07:34:45;98548.13;;;9.85
35960;BMP280;22043;50.970;7.192;2023-04-15T07:37:10;98550.75;;;9.89
35960;BMP280;22043;50.970;7.192;2023-04-15T07:39:36;98551.41;;;9.96
35960;BMP280;22043;50.970;7.192;2023-04-15T07:42:02;98557.47;;;10.04
35960;BMP280;22043;50.970;7.192;2023-04-15T07:44:28;98564.50;;;10.01
35960;BMP280;22043;50.970;7.192;2023-04-15T07:46:54;98568.97;;;10.12
35960;BMP280;22043;50.970;7.192;2023-04-15T07:49:20;98561.84;;;10.18
35960;BMP280;22043;50.970;7.192;2023-04-15T07:51:46;98570.13;;;10.30
35960;BMP280;22043;50.970;7.192;2023-04-15T07:54:11;98558.31;;;10.37
35960;BMP280;22043;50.970;7.192;2023-04-15T07:56:37;98569.25;;;10.53
35960;BMP280;22043;50.970;7.192;2023-04-15T07:59:03;98566.53;;;10.53
35960;BMP280;22043;50.970;7.192;2023-04-15T08:01:30;98575.19;;;10.64
35960;BMP280;22043;50.970;7.192;2023-04-15T08:03:56;98575.47;;;10.54
35960;BMP280;22043;50.970;7.192;2023-04-15T08:06:21;98570.50;;;10.49
35960;BMP280;22043;50.970;7.192;2023-04-15T08:08:47;98585.94;;;10.55
35960;BMP280;22043;50.970;7.192;2023-04-15T08:11:12;98591.81;;;10.54
35960;BMP280;22043;50.970;7.192;2023-04-15T08:13:38;98594.34;;;10.45
35960;BMP280;22043;50.970;7.192;2023-04-15T08:16:20;98590.84;;;10.44
35960;BMP280;22043;50.970;7.192;2023-04-15T08:18:50;98591.88;;;10.50
35960;BMP280;22043;50.970;7.192;2023-04-15T08:21:17;98593.94;;;10.62
35960;BMP280;22043;50.970;7.192;2023-04-15T08:23:44;98598.88;;;10.68
35960;BMP280;22043;50.970;7.192;2023-04-15T08:26:10;98596.75;;;10.75
35960;BMP280;22043;50.970;7.192;2023-04-15T08:28:38;98603.69;;;10.80
35960;BMP280;22043;50.970;7.192;2023-04-15T08:31:03;98615.00;;;10.78
35960;BMP280;22043;50.970;7.192;2023-04-15T08:33:29;98603.34;;;10.78
35960;BMP280;22043;50.970;7.192;2023-04-15T08:35:54;98611.84;;;10.63
35960;BMP280;22043;50.970;7.192;2023-04-15T08:38:19;98617.13;;;10.71
35960;BMP280;22043;50.970;7.192;2023-04-15T08:40:45;98609.38;;;10.69
35960;BMP280;22043;50.970;7.192;2023-04-15T08:43:17;98612.09;;;10.69
35960;BMP280;22043;50.970;7.192;2023-04-15T08:45:45;98623.25;;;10.75
35960;BMP280;22043;50.970;7.192;2023-04-15T08:48:14;98614.50;;;10.83
35960;BMP280;22043;50.970;7.192;2023-04-15T08:50:41;98618.16;;;10.93
35960;BMP280;22043;50.970;7.192;2023-04-15T08:53:08;98624.81;;;11.08
35960;BMP280;22043;50.970;7.192;2023-04-15T08:55:35;98635.78;;;11.21
35960;BMP280;22043;50.970;7.192;2023-04-15T08:58:01;98628.22;;;11.29
35960;BMP280;22043;50.970;7.192;2023-04-15T09:00:27;98651.41;;;11.20
35960;BMP280;22043;50.970;7.192;2023-04-15T09:02:54;98635.06;;;11.04
35960;BMP280;22043;50.970;7.192;2023-04-15T09:05:20;98633.06;;;11.05
35960;BMP280;22043;50.970;7.192;2023-04-15T09:07:47;98641.13;;;11.12
35960;BMP280;22043;50.970;7.192;2023-04-15T09:10:14;98646.41;;;11.03
35960;BMP280;22043;50.970;7.192;2023-04-15T09:12:39;98639.97;;;10.93
35960;BMP280;22043;50.970;7.192;2023-04-15T09:15:07;98651.72;;;11.06
35960;BMP280;22043;50.970;7.192;2023-04-15T09:17:41;98647.34;;;11.12
35960;BMP280;22043;50.970;7.192;2023-04-15T09:20:11;98651.94;;;11.15
35960;BMP280;22043;50.970;7.192;2023-04-15T09:22:39;98653.63;;;11.09
35960;BMP280;22043;50.970;7.192;2023-04-15T09:27:50;98651.72;;;11.06
35960;BMP280;22043;50.970;7.192;2023-04-15T09:30:16;98667.03;;;11.20
35960;BMP280;22043;50.970;7.192;2023-04-15T09:32:54;98660.09;;;11.15
35960;BMP280;22043;50.970;7.192;2023-04-15T09:35:21;98653.03;;;11.18
35960;BMP280;22043;50.970;7.192;2023-04-15T09:37:50;98675.34;;;11.13
35960;BMP280;22043;50.970;7.192;2023-04-15T09:40:38;98670.34;;;11.11
35960;BMP280;22043;50.970;7.192;2023-04-15T09:43:05;98672.88;;;11.02
35960;BMP280;22043;50.970;7.192;2023-04-15T09:45:32;98678.31;;;11.02
35960;BMP280;22043;50.970;7.192;2023-04-15T09:47:59;98690.84;;;11.00
35960;BMP280;22043;50.970;7.192;2023-04-15T09:50:27;98679.50;;;11.01
35960;BMP280;22043;50.970;7.192;2023-04-15T09:52:56;98685.41;;;11.00
35960;BMP280;22043;50.970;7.192;2023-04-15T09:55:21;98689.50;;;11.08
35960;BMP280;22043;50.970;7.192;2023-04-15T09:57:47;98683.78;;;11.18
35960;BMP280;22043;50.970;7.192;2023-04-15T10:00:13;98692.31;;;11.20
35960;BMP280;22043;50.970;7.192;2023-04-15T10:02:40;98691.28;;;11.31
35960;BMP280;22043;50.970;7.192;2023-04-15T10:05:08;98698.09;;;11.22
35960;BMP280;22043;50.970;7.192;2023-04-15T10:07:35;98701.53;;;11.27
35960;BMP280;22043;50.970;7.192;2023-04-15T10:10:00;98700.44;;;11.24
35960;BMP280;22043;50.970;7.192;2023-04-15T10:12:28;98704.31;;;11.23
35960;BMP280;22043;50.970;7.192;2023-04-15T10:15:03;98706.41;;;11.35
35960;BMP280;22043;50.970;7.192;2023-04-15T10:17:29;98711.41;;;11.37
35960;BMP280;22043;50.970;7.192;2023-04-15T10:20:00;98703.66;;;11.35
35960;BMP280;22043;50.970;7.192;2023-04-15T10:22:27;98710.75;;;11.49
35960;BMP280;22043;50.970;7.192;2023-04-15T10:24:54;98708.94;;;11.59
35960;BMP280;22043;50.970;7.192;2023-04-15T10:27:20;98712.34;;;11.63
35960;BMP280;22043;50.970;7.192;2023-04-15T10:29:48;98720.72;;;11.72
35960;BMP280;22043;50.970;7.192;2023-04-15T10:32:14;98719.56;;;11.69
35960;BMP280;22043;50.970;7.192;2023-04-15T10:34:41;98717.97;;;11.72
35960;BMP280;22043;50.970;7.192;2023-04-15T10:37:08;98727.44;;;11.84
35960;BMP280;22043;50.970;7.192;2023-04-15T10:42:11;98728.38;;;11.77
35960;BMP280;22043;50.970;7.192;2023-04-15T10:44:38;98728.81;;;11.75
35960;BMP280;22043;50.970;7.192;2023-04-15T10:47:12;98732.06;;;11.70
35960;BMP280;22043;50.970;7.192;2023-04-15T10:49:49;98738.44;;;11.64
35960;BMP280;22043;50.970;7.192;2023-04-15T10:52:22;98735.13;;;11.72
35960;BMP280;22043;50.970;7.192;2023-04-15T10:54:48;98730.94;;;11.68
35960;BMP280;22043;50.970;7.192;2023-04-15T10:57:22;98734.84;;;11.83
35960;BMP280;22043;50.970;7.192;2023-04-15T11:02:45;98741.56;;;11.95
35960;BMP280;22043;50.970;7.192;2023-04-15T11:05:13;98733.28;;;11.98
35960;BMP280;22043;50.970;7.192;2023-04-15T11:07:54;98742.06;;;11.90
35960;BMP280;22043;50.970;7.192;2023-04-15T11:15:31;98746.53;;;11.84
35960;BMP280;22043;50.970;7.192;2023-04-15T11:17:59;98745.25;;;11.88
35960;BMP280;22043;50.970;7.192;2023-04-15T11:20:25;98745.69;;;11.87
35960;BMP280;22043;50.970;7.192;2023-04-15T11:22:52;98750.72;;;11.88
35960;BMP280;22043;50.970;7.192;2023-04-15T11:25:26;98748.22;;;11.94
35960;BMP280;22043;50.970;7.192;2023-04-15T11:27:53;98753.16;;;11.99
35960;BMP280;22043;50.970;7.192;2023-04-15T11:30:23;98795.47;;;12.07
35960;BMP280;22043;50.970;7.192;2023-04-15T11:32:59;98767.22;;;12.14
35960;BMP280;22043;50.970;7.192;2023-04-15T11:35:25;98765.97;;;12.02
35960;BMP280;22043;50.970;7.192;2023-04-15T11:37:51;98775.13;;;11.79
35960;BMP280;22043;50.970;7.192;2023-04-15T11:40:21;98775.13;;;11.79
35960;BMP280;22043;50.970;7.192;2023-04-15T11:43:03;98786.22;;;11.56
35960;BMP280;22043;50.970;7.192;2023-04-15T11:45:28;98801.81;;;11.39
35960;BMP280;22043;50.970;7.192;2023-04-15T11:47:54;98811.00;;;11.29
35960;BMP280;22043;50.970;7.192;2023-04-15T11:50:21;98808.41;;;11.21
35960;BMP280;22043;50.970;7.192;2023-04-15T11:53:00;98803.63;;;11.09
35960;BMP280;22043;50.970;7.192;2023-04-15T11:55:27;98818.25;;;10.99
35960;BMP280;22043;50.970;7.192;2023-04-15T11:58:12;98810.72;;;10.87
35960;BMP280;22043;50.970;7.192;2023-04-15T12:00:39;98815.03;;;10.84
35960;BMP280;22043;50.970;7.192;2023-04-15T12:03:41;98812.09;;;10.75
35960;BMP280;22043;50.970;7.192;2023-04-15T12:13:58;98826.56;;;10.72
35960;BMP280;22043;50.970;7.192;2023-04-15T12:16:27;98834.78;;;10.69
35960;BMP280;22043;50.970;7.192;2023-04-15T12:18:55;98835.09;;;10.74
35960;BMP280;22043;50.970;7.192;2023-04-15T12:21:26;98837.06;;;10.74
35960;BMP280;22043;50.970;7.192;2023-04-15T12:23:56;98841.22;;;10.58
35960;BMP280;22043;50.970;7.192;2023-04-15T12:26:28;98845.44;;;10.63
35960;BMP280;22043;50.970;7.192;2023-04-15T12:28:55;98854.50;;;10.56
35960;BMP280;22043;50.970;7.192;2023-04-15T12:31:24;98862.38;;;10.51
35960;BMP280;22043;50.970;7.192;2023-04-15T12:33:50;98868.31;;;10.46
35960;BMP280;22043;50.970;7.192;2023-04-15T12:36:15;98860.56;;;10.44
35960;BMP280;22043;50.970;7.192;2023-04-15T12:38:41;98877.84;;;10.34
35960;BMP280;22043;50.970;7.192;2023-04-15T12:41:06;98884.06;;;10.34
35960;BMP280;22043;50.970;7.192;2023-04-15T12:43:32;98893.78;;;10.35
35960;BMP280;22043;50.970;7.192;2023-04-15T12:45:57;98880.94;;;10.36
35960;BMP280;22043;50.970;7.192;2023-04-15T12:48:23;98891.06;;;10.35
35960;BMP280;22043;50.970;7.192;2023-04-15T12:50:48;98894.81;;;10.45
35960;BMP280;22043;50.970;7.192;2023-04-15T12:53:14;98892.72;;;10.29
35960;BMP280;22043;50.970;7.192;2023-04-15T12:55:39;98899.41;;;10.25
35960;BMP280;22043;50.970;7.192;2023-04-15T12:58:05;98902.78;;;10.32
35960;BMP280;22043;50.970;7.192;2023-04-15T13:00:33;98915.75;;;10.25
35960;BMP280;22043;50.970;7.192;2023-04-15T13:02:58;98919.28;;;10.22
35960;BMP280;22043;50.970;7.192;2023-04-15T13:05:24;98919.72;;;10.20
35960;BMP280;22043;50.970;7.192;2023-04-15T13:07:49;98922.19;;;10.11
35960;BMP280;22043;50.970;7.192;2023-04-15T13:10:15;98923.31;;;10.14
35960;BMP280;22043;50.970;7.192;2023-04-15T13:12:41;98923.81;;;10.32
35960;BMP280;22043;50.970;7.192;2023-04-15T13:15:06;98921.66;;;10.43
35960;BMP280;22043;50.970;7.192;2023-04-15T13:17:36;98926.31;;;10.46
35960;BMP280;22043;50.970;7.192;2023-04-15T13:20:02;98924.69;;;10.49
35960;BMP280;22043;50.970;7.192;2023-04-15T13:22:27;98933.72;;;10.46
35960;BMP280;22043;50.970;7.192;2023-04-15T13:24:53;98933.16;;;10.31
35960;BMP280;22043;50.970;7.192;2023-04-15T13:27:18;98930.28;;;10.15
35960;BMP280;22043;50.970;7.192;2023-04-15T13:29:44;98929.94;;;10.13
35960;BMP280;22043;50.970;7.192;2023-04-15T13:32:09;98937.47;;;10.01
35960;BMP280;22043;50.970;7.192;2023-04-15T13:34:34;98934.72;;;10.05
35960;BMP280;22043;50.970;7.192;2023-04-15T13:37:09;98938.63;;;10.04
35960;BMP280;22043;50.970;7.192;2023-04-15T13:39:34;98945.25;;;10.03
35960;BMP280;22043;50.970;7.192;2023-04-15T13:42:01;98954.97;;;10.04
35960;BMP280;22043;50.970;7.192;2023-04-15T13:44:27;98952.53;;;10.09
35960;BMP280;22043;50.970;7.192;2023-04-15T13:46:52;98959.91;;;10.13
35960;BMP280;22043;50.970;7.192;2023-04-15T13:49:18;98963.84;;;10.08
35960;BMP280;22043;50.970;7.192;2023-04-15T13:51:43;98961.13;;;10.08
35960;BMP280;22043;50.970;7.192;2023-04-15T13:54:09;98958.88;;;10.03
35960;BMP280;22043;50.970;7.192;2023-04-15T13:56:34;98964.69;;;10.01
35960;BMP280;22043;50.970;7.192;2023-04-15T13:59:00;98974.44;;;10.02
35960;BMP280;22043;50.970;7.192;2023-04-15T14:01:27;98969.00;;;10.02
35960;BMP280;22043;50.970;7.192;2023-04-15T14:03:53;98979.16;;;9.98
35960;BMP280;22043;50.970;7.192;2023-04-15T14:06:18;98983.72;;;10.05
35960;BMP280;22043;50.970;7.192;2023-04-15T14:08:45;98970.53;;;10.03
35960;BMP280;22043;50.970;7.192;2023-04-15T14:11:11;98985.28;;;10.06
35960;BMP280;22043;50.970;7.192;2023-04-15T14:13:36;98989.94;;;10.05
35960;BMP280;22043;50.970;7.192;2023-04-15T14:16:02;98983.75;;;10.01
35960;BMP280;22043;50.970;7.192;2023-04-15T14:18:27;98987.06;;;9.89
35960;BMP280;22043;50.970;7.192;2023-04-15T14:20:54;98987.50;;;9.84
35960;BMP280;22043;50.970;7.192;2023-04-15T14:23:20;98990.69;;;9.79
35960;BMP280;22043;50.970;7.192;2023-04-15T14:25:45;98989.25;;;9.67
35960;BMP280;22043;50.970;7.192;2023-04-15T14:28:11;98997.56;;;9.57
35960;BMP280;22043;50.970;7.192;2023-04-15T14:30:36;99003.69;;;9.64
35960;BMP280;22043;50.970;7.192;2023-04-15T14:33:02;99002.47;;;9.69
35960;BMP280;22043;50.970;7.192;2023-04-15T14:35:27;99000.47;;;9.73